Mater Bi — ECCH — position and weather

sailwx.info

Track history (hours):
 
Tides and Currents Weather Stations Pressure Air Temp Water Temp Dewpoint Dewpoint Depression Visibility Wind Speed Wind Dir Waves Ship Positions

Mater Bi

Last reported at 2018-Jun-08 00:24 UTC. Time now 2018-Jun-20 09:37 UTC.
Position N 43°19' W 002°12'.
Warning: this ship's position is 12 days out of date.

Length 25 m.

Type: Fishing. MMSI: 224085260.

Date/timePositionNaut miles runAvg speedWind from/ knotsBaromVisibWave heightAir tempDewpointWater temp
2018-Jun-08 00:24N 43°19' W 002°12'410.2
2018-Jun-08 00:01N 43°21' W 002°16'510.5
2018-Jun-07 23:31N 43°23' W 002°23'510.4
2018-Jun-07 23:01N 43°25' W 002°29'510.2
2018-Jun-07 22:30N 43°27' W 002°36'510.4
2018-Jun-07 22:01N 43°29' W 002°43'510.3
2018-Jun-07 21:30N 43°29' W 002°50'910.1
2018-Jun-07 20:34N 43°28' W 003°03'110.1
2018-Jun-07 20:30N 43°28' W 003°04'510.4
2018-Jun-07 20:00N 43°28' W 003°11'810.4
2018-Jun-07 19:12N 43°26' W 003°22'  
2018-Jun-05 14:21N 43°33' W 005°42'0 0.1
2018-Jun-05 13:52N 43°33' W 005°42'105 2.9
2018-Jun-04 01:49N 43°31' W 003°17'410.4
2018-Jun-04 01:27N 43°31' W 003°12'910.5
2018-Jun-04 00:35N 43°31' W 002°59'110.4
2018-Jun-04 00:30N 43°31' W 002°58'510.4
2018-Jun-04 00:00N 43°30' W 002°51'510.2
2018-Jun-03 23:31N 43°29' W 002°44'510.5
2018-Jun-03 23:01N 43°27' W 002°38'510.5
2018-Jun-03 22:29N 43°25' W 002°31'510.6
2018-Jun-03 22:01N 43°23' W 002°24'510.3
2018-Jun-03 21:31N 43°21' W 002°18'510.1
2018-Jun-03 21:01N 43°19' W 002°12'1 0.0
2018-Jun-02 06:33N 43°18' W 002°11'0 9.4
2018-Jun-02 06:30N 43°18' W 002°11'2 0.1
2018-May-31 15:49N 43°18' W 002°08'3 1.0
2018-May-31 12:57N 43°19' W 002°12'511.5
2018-May-31 12:30N 43°23' W 002°16'611.4
2018-May-31 12:00N 43°27' W 002°22'4 8.0
2018-May-31 11:30N 43°30' W 002°26'0 0.5
2018-May-31 11:00N 43°30' W 002°26'0 0.5
2018-May-31 10:30N 43°30' W 002°27'0 0.1
2018-May-31 10:00N 43°30' W 002°27'0 0.8
2018-May-31 09:30N 43°30' W 002°26'2 3.3
2018-May-31 09:00N 43°31' W 002°27'1 1.6
2018-May-31 08:31N 43°31' W 002°26'0 0.2
2018-May-31 08:01N 43°31' W 002°26'1 1.3
2018-May-31 07:31N 43°32' W 002°26'0 0.9
2018-May-31 07:00N 43°32' W 002°26'3 6.3
2018-May-31 06:30N 43°36' W 002°25'4 8.4
2018-May-31 06:00N 43°39' W 002°29'4 8.7
2018-May-31 05:30N 43°41' W 002°34'5 9.1
2018-May-31 05:00N 43°43' W 002°40'5 9.1
2018-May-31 04:30N 43°43' W 002°46'8 4.5
2018-May-31 02:48N 43°38' W 002°53'2 6.3
2018-May-31 02:30N 43°37' W 002°52'3 6.3
2018-May-31 01:59N 43°34' W 002°48'1 2.9
2018-May-31 01:30N 43°33' W 002°47'0 0.7
2018-May-31 01:00N 43°34' W 002°47'0 0.6
2018-May-31 00:30N 43°34' W 002°48'0 0.7
2018-May-31 00:00N 43°34' W 002°48'0 0.7
2018-May-30 23:30N 43°34' W 002°48'0 0.7
2018-May-30 23:00N 43°35' W 002°49'0 0.6
2018-May-30 22:30N 43°35' W 002°49'2 5.0
2018-May-30 22:00N 43°36' W 002°52'2 3.2
2018-May-30 21:17N 43°38' W 002°53'2 6.0
2018-May-30 20:56N 43°38' W 002°51'3 6.0
2018-May-30 20:30N 43°38' W 002°47'3 5.8
2018-May-30 20:00N 43°37' W 002°43'4 7.5
2018-May-30 19:30N 43°34' W 002°44'5 8.9
2018-May-30 19:00N 43°33' W 002°50'5 9.2
2018-May-30 18:29N 43°33' W 002°57'5 9.2
2018-May-30 18:00N 43°33' W 003°03'7 9.2
2018-May-30 17:14N 43°32' W 003°12'5 9.1
2018-May-30 16:40N 43°30' W 003°19'1 9.2
2018-May-30 16:30N 43°29' W 003°20'4 2.0
2018-May-30 14:19N 43°29' W 003°26'2 0.1
2018-May-29 15:09N 43°30' W 003°28'1 9.2
2018-May-29 15:00N 43°29' W 003°26'3 0.9
2018-May-29 11:40N 43°26' W 003°25'2 9.7
2018-May-29 11:25N 43°29' W 003°26'  
Track history (hours):
 
Tides and Currents Weather Stations Pressure Air Temp Water Temp Dewpoint Dewpoint Depression Visibility Wind Speed Wind Dir Waves Ship Positions

Mater Bi

Last reported at 2018-Jun-08 00:24 UTC. Time now 2018-Jun-20 09:37 UTC.
Position N 43°19' W 002°12'.
Warning: this ship's position is 12 days out of date.

Length 25 m.

Type: Fishing. MMSI: 224085260.

Date/timePositionNaut miles runAvg speedWind from/ knotsBaromVisibWave heightAir tempDewpointWater temp
2018-Jun-08 00:24N 43°19' W 002°12'410.2
2018-Jun-08 00:01N 43°21' W 002°16'510.5
2018-Jun-07 23:31N 43°23' W 002°23'510.4
2018-Jun-07 23:01N 43°25' W 002°29'510.2
2018-Jun-07 22:30N 43°27' W 002°36'510.4
2018-Jun-07 22:01N 43°29' W 002°43'510.3
2018-Jun-07 21:30N 43°29' W 002°50'910.1
2018-Jun-07 20:34N 43°28' W 003°03'110.1
2018-Jun-07 20:30N 43°28' W 003°04'510.4
2018-Jun-07 20:00N 43°28' W 003°11'810.4
2018-Jun-07 19:12N 43°26' W 003°22'  
2018-Jun-05 14:21N 43°33' W 005°42'0 0.1
2018-Jun-05 13:52N 43°33' W 005°42'105 2.9
2018-Jun-04 01:49N 43°31' W 003°17'410.4
2018-Jun-04 01:27N 43°31' W 003°12'910.5
2018-Jun-04 00:35N 43°31' W 002°59'110.4
2018-Jun-04 00:30N 43°31' W 002°58'510.4
2018-Jun-04 00:00N 43°30' W 002°51'510.2
2018-Jun-03 23:31N 43°29' W 002°44'510.5
2018-Jun-03 23:01N 43°27' W 002°38'510.5
2018-Jun-03 22:29N 43°25' W 002°31'510.6
2018-Jun-03 22:01N 43°23' W 002°24'510.3
2018-Jun-03 21:31N 43°21' W 002°18'510.1
2018-Jun-03 21:01N 43°19' W 002°12'1 0.0
2018-Jun-02 06:33N 43°18' W 002°11'0 9.4
2018-Jun-02 06:30N 43°18' W 002°11'2 0.1
2018-May-31 15:49N 43°18' W 002°08'3 1.0
2018-May-31 12:57N 43°19' W 002°12'511.5
2018-May-31 12:30N 43°23' W 002°16'611.4
2018-May-31 12:00N 43°27' W 002°22'4 8.0
2018-May-31 11:30N 43°30' W 002°26'0 0.5
2018-May-31 11:00N 43°30' W 002°26'0 0.5
2018-May-31 10:30N 43°30' W 002°27'0 0.1
2018-May-31 10:00N 43°30' W 002°27'0 0.8
2018-May-31 09:30N 43°30' W 002°26'2 3.3
2018-May-31 09:00N 43°31' W 002°27'1 1.6
2018-May-31 08:31N 43°31' W 002°26'0 0.2
2018-May-31 08:01N 43°31' W 002°26'1 1.3
2018-May-31 07:31N 43°32' W 002°26'0 0.9
2018-May-31 07:00N 43°32' W 002°26'3 6.3
2018-May-31 06:30N 43°36' W 002°25'4 8.4
2018-May-31 06:00N 43°39' W 002°29'4 8.7
2018-May-31 05:30N 43°41' W 002°34'5 9.1
2018-May-31 05:00N 43°43' W 002°40'5 9.1
2018-May-31 04:30N 43°43' W 002°46'8 4.5
2018-May-31 02:48N 43°38' W 002°53'2 6.3
2018-May-31 02:30N 43°37' W 002°52'3 6.3
2018-May-31 01:59N 43°34' W 002°48'1 2.9
2018-May-31 01:30N 43°33' W 002°47'0 0.7
2018-May-31 01:00N 43°34' W 002°47'0 0.6
2018-May-31 00:30N 43°34' W 002°48'0 0.7
2018-May-31 00:00N 43°34' W 002°48'0 0.7
2018-May-30 23:30N 43°34' W 002°48'0 0.7
2018-May-30 23:00N 43°35' W 002°49'0 0.6
2018-May-30 22:30N 43°35' W 002°49'2 5.0
2018-May-30 22:00N 43°36' W 002°52'2 3.2
2018-May-30 21:17N 43°38' W 002°53'2 6.0
2018-May-30 20:56N 43°38' W 002°51'3 6.0
2018-May-30 20:30N 43°38' W 002°47'3 5.8
2018-May-30 20:00N 43°37' W 002°43'4 7.5
2018-May-30 19:30N 43°34' W 002°44'5 8.9
2018-May-30 19:00N 43°33' W 002°50'5 9.2
2018-May-30 18:29N 43°33' W 002°57'5 9.2
2018-May-30 18:00N 43°33' W 003°03'7 9.2
2018-May-30 17:14N 43°32' W 003°12'5 9.1
2018-May-30 16:40N 43°30' W 003°19'1 9.2
2018-May-30 16:30N 43°29' W 003°20'4 2.0
2018-May-30 14:19N 43°29' W 003°26'2 0.1
2018-May-29 15:09N 43°30' W 003°28'1 9.2
2018-May-29 15:00N 43°29' W 003°26'3 0.9
2018-May-29 11:40N 43°26' W 003°25'2 9.7
2018-May-29 11:25N 43°29' W 003°26'  

Dump ship's entire track history